Latest Weather Observations for Nullarbor

IDS60801

Issued at 9:51 pm CDT Thursday 17 January 2019 (issued every 10 minutes, with the page automatically refreshed every 10 minutes)

About weather observations | Map of weather stations | Latest weather observations for SA | Other Formats
Station Details ID: 018106 Name: NULLARBOR Lat: -31.45 Lon: 130.90 Height: 64.0 m
Data from the previous 72 hours. | See also: Recent months at Nullarbor
Date/Time
CDT
Temp
°C
App
Temp
°C
Dew
Point
°C
Rel
Hum
%
Delta-T
°C
Wind Press
QNH
hPa
Press
MSL
hPa
Rain since
9am
mm
Dir  Spd
km/h
Gust
km/h
Spd
kts
Gust
kts
17/09:30pm 20.0 18.1 19.3 96 0.4 SSE 28 37 15 20 1008.4 1008.1 0.0
17/09:00pm 20.2 17.8 19.2 94 0.6 SSE 30 37 16 20 1008.5 1008.2 0.0
17/08:30pm 21.1 19.0 19.0 88 1.3 SSE 28 33 15 18 1008.5 1008.2 0.0
17/08:00pm 21.1 19.4 19.0 88 1.3 SSE 26 32 14 17 1008.1 1007.8 0.0
17/07:30pm 22.2 20.0 18.6 80 2.3 S 28 35 15 19 1007.8 1007.5 0.0
17/07:00pm 24.6 22.4 18.8 70 3.7 SE 28 35 15 19 1007.3 1007.0 0.0
17/06:30pm 25.0 22.6 19.1 70 3.8 SSE 30 37 16 20 1007.1 1006.8 0.0
17/06:00pm 24.8 22.7 19.0 70 3.7 SSE 28 33 15 18 1007.8 1007.5 0.0
17/05:30pm 24.7 23.1 19.1 71 3.6 SSE 26 33 14 18 1008.1 1007.8 0.0
17/05:00pm 24.8 23.4 19.6 73 3.4 SSE 26 33 14 18 1008.3 1008.0 0.0
17/04:30pm 22.9 21.8 19.5 81 2.2 SSE 24 32 13 17 1008.4 1008.1 0.0
17/04:00pm 22.9 21.7 19.3 80 2.3 SSE 24 33 13 18 1008.5 1008.2 0.0
17/03:30pm 23.1 21.7 19.7 81 2.2 SSE 26 33 14 18 1008.6 1008.3 0.0
17/03:00pm 23.1 22.8 19.5 80 2.3 S 20 26 11 14 1009.3 1009.0 0.0
17/02:30pm 23.2 22.2 19.6 80 2.3 SSW 24 35 13 19 1009.1 1008.8 0.0
17/02:00pm 23.2 23.9 19.6 80 2.3 S 15 20 8 11 1009.9 1009.6 0.0
17/01:30pm 23.7 24.2 19.2 76 2.9 SE 15 20 8 11 1009.5 1009.2 0.0
17/01:00pm 24.1 22.0 19.0 73 3.3 SSE 28 35 15 19 1008.3 1008.0 0.0
17/12:30pm 23.8 21.8 19.1 75 3.0 SSE 28 33 15 18 1008.5 1008.2 0.0
17/12:00pm 22.9 23.2 19.7 82 2.1 SSW 17 24 9 13 1010.1 1009.8 0.0
17/11:30am 21.7 21.3 19.3 86 1.5 SE 20 26 11 14 1009.5 1009.2 0.0
17/11:00am 21.6 21.3 19.5 88 1.3 SSE 20 28 11 15 1009.7 1009.4 0.0
17/10:30am 21.7 21.2 19.1 85 1.7 S 20 28 11 15 1010.1 1009.8 0.0
17/10:00am 21.9 21.4 19.1 84 1.8 SSE 20 28 11 15 1009.9 1009.6 0.0
17/09:30am 22.2 21.2 19.6 85 1.7 S 24 30 13 16 1010.0 1009.7 0.0
17/09:00am 21.1 20.3 20.1 94 0.6 SSW 24 32 13 17 1010.2 1009.9 0.0
17/08:30am 20.7 20.8 20.4 98 0.2 SW 20 32 11 17 1010.5 1010.2 0.0
17/08:29am 20.7 20.8 20.4 98 0.2 SW 20 32 11 17 1010.5 1010.2 0.0
17/08:00am 20.6 20.0 20.4 99 0.1 SW 24 32 13 17 1010.0 1009.7 0.0
17/07:31am 20.5 20.2 20.3 99 0.1 SW 22 30 12 16 1009.1 1008.8 0.0
17/07:30am 20.5 20.2 20.3 99 0.1 SW 22 32 12 17 1009.1 1008.8 0.0
17/07:15am 20.5 19.4 20.3 99 0.1 WSW 26 35 14 19 1009.3 1009.0 0.0
17/07:00am 20.5 19.8 20.3 99 0.1 WSW 24 32 13 17 1009.2 1008.9 0.0
17/06:30am 20.6 20.0 20.4 99 0.1 WSW 24 33 13 18 1008.9 1008.6 0.0
17/06:21am 20.6 20.3 20.3 98 0.2 WSW 22 32 12 17 1008.4 1008.1 0.0
17/06:00am 20.9 19.6 19.9 94 0.6 WSW 26 37 14 20 1008.8 1008.5 0.0
17/05:30am 21.9 21.4 18.7 82 2.0 WSW 19 26 10 14 1008.0 1007.7 0.0
17/05:00am 22.5 19.7 17.4 73 3.2 W 28 37 15 20 1008.5 1008.2 0.0
17/04:47am 23.3 20.2 16.6 66 4.1 W 28 48 15 26 1008.3 1008.0 0.0
17/04:30am 24.1 22.0 15.1 57 5.4 WSW 20 30 11 16 1007.3 1007.0 0.0
17/04:00am 25.1 23.6 14.3 51 6.4 WSW 15 24 8 13 1006.5 1006.3 0.0
17/03:30am 25.2 24.0 14.0 49 6.6 NNE 13 19 7 10 1006.2 1006.0 0.0
17/03:00am 25.3 23.0 14.1 50 6.7 NE 19 28 10 15 1005.8 1005.6 0.0
17/02:30am 24.8 22.8 14.9 54 6.0 NE 19 24 10 13 1005.9 1005.7 0.0
17/02:00am 24.3 21.9 15.5 58 5.3 NE 22 28 12 15 1005.7 1005.5 0.0
17/01:30am 24.2 21.9 15.7 59 5.2 NE 22 28 12 15 1006.3 1006.1 0.0
17/01:00am 23.6 22.0 16.4 64 4.4 NE 20 28 11 15 1006.0 1005.8 0.0
17/12:30am 22.9 21.6 16.9 69 3.7 NE 19 24 10 13 1006.7 1006.5 0.0
17/12:00am 22.2 22.4 17.6 75 2.9 NE 13 19 7 10 1007.6 1007.3 0.0
 
Date/Time
CDT
Temp
°C
App
Temp
°C
Dew
Point
°C
Rel
Hum
%
Delta-T
°C
Wind Press
QNH
hPa
Press
MSL
hPa
Rain since
9am
mm
Dir  Spd
km/h
Gust
km/h
Spd
kts
Gust
kts
16/11:30pm 21.8 21.4 18.0 79 2.4 ENE 17 19 9 10 1007.7 1007.4 0.0
16/11:00pm 21.5 20.3 18.5 83 1.9 ENE 22 28 12 15 1007.5 1007.2 0.0
16/10:56pm 21.4 20.3 18.6 84 1.8 ENE 22 28 12 15 1007.5 1007.2 0.0
16/10:30pm 21.1 19.1 19.2 89 1.2 E 28 32 15 17 1006.6 1006.4 0.0
16/10:00pm 21.2 20.4 19.3 89 1.2 E 22 30 12 16 1007.5 1007.2 0.0
16/09:30pm 21.1 20.0 19.4 90 1.1 ESE 24 32 13 17 1007.3 1007.0 0.0
16/09:00pm 21.1 20.4 19.4 90 1.1 SE 22 32 12 17 1007.9 1007.6 0.0
16/08:30pm 21.2 19.6 19.3 89 1.2 S 26 33 14 18 1008.4 1008.1 0.0
16/08:00pm 21.3 18.6 19.2 88 1.3 SSE 32 41 17 22 1007.6 1007.3 0.0
16/07:30pm 21.5 18.5 19.1 86 1.5 SSW 33 44 18 24 1008.6 1008.3 0.0
16/07:00pm 22.3 18.9 18.9 81 2.2 SSW 35 43 19 23 1008.3 1008.0 0.0
16/06:30pm 23.6 18.6 18.0 71 3.5 SSW 41 56 22 30 1007.7 1007.4 0.0
16/06:00pm 24.1 20.1 17.6 67 4.1 SW 35 54 19 29 1008.2 1007.9 0.0
16/05:59pm 24.4 20.7 17.4 65 4.4 SW 33 54 18 29 1008.3 1008.0 0.0
16/05:41pm 27.0 24.2 16.3 52 6.6 SSW 26 44 14 24 1007.5 1007.2 0.0
16/05:40pm 27.3 24.9 16.3 51 6.8 SSW 24 44 13 24 1007.5 1007.2 0.0
16/05:30pm 28.6 27.7 14.8 43 8.4 SSW 13 17 7 9 1006.7 1006.5 0.0
16/05:00pm 29.3 28.0 14.7 41 8.9 ESE 15 19 8 10 1005.9 1005.7 0.0
16/04:30pm 28.5 27.2 15.8 46 7.9 SE 17 20 9 11 1006.3 1006.1 0.0
16/04:00pm 29.6 27.9 15.7 43 8.6 ESE 19 24 10 13 1006.4 1006.2 0.0
16/03:30pm 29.4 26.5 15.1 41 8.8 E 24 30 13 16 1006.6 1006.4 0.0
16/03:00pm 26.7 25.1 16.6 54 6.3 ESE 20 30 11 16 1007.0 1006.7 0.0
16/02:30pm 25.8 24.8 18.0 62 4.9 E 20 28 11 15 1007.3 1007.0 0.0
16/02:00pm 24.8 22.4 18.3 67 4.1 ESE 28 35 15 19 1007.9 1007.6 0.0
16/01:30pm 23.6 20.6 18.7 74 3.1 ESE 32 39 17 21 1008.2 1007.9 0.0
16/01:14pm 22.9 19.9 18.7 77 2.7 ESE 32 39 17 21 1008.6 1008.3 0.0
16/01:00pm 22.9 20.9 19.1 79 2.4 ESE 28 35 15 19 1009.0 1008.7 0.0
16/12:49pm 22.2 20.0 18.8 81 2.1 SE 28 37 15 20 1009.4 1009.1 0.0
16/12:30pm 21.5 18.5 18.7 84 1.8 SSE 32 39 17 21 1009.9 1009.6 0.0
16/12:00pm 21.7 18.6 18.9 84 1.8 SSE 33 43 18 23 1009.9 1009.6 0.0
16/11:30am 21.4 18.0 19.0 86 1.5 S 35 48 19 26 1009.9 1009.6 0.0
16/11:00am 21.9 18.1 18.9 83 1.9 S 37 52 20 28 1009.6 1009.3 0.0
16/10:39am 22.0 16.6 19.2 84 1.8 SSW 46 57 25 31 1009.5 1009.2 0.0
16/10:30am 22.0 17.6 19.2 84 1.8 S 41 54 22 29 1009.3 1009.0 0.0
16/10:16am 22.0 17.5 19.0 83 1.9 SSW 41 54 22 29 1009.4 1009.1 0.0
16/10:00am 21.7 16.6 19.1 85 1.6 SSW 44 57 24 31 1009.5 1009.2 0.0
16/09:44am 21.7 17.7 19.3 86 1.5 SW 39 56 21 30 1010.1 1009.8 0.0
16/09:30am 22.2 17.8 19.2 83 1.9 SSW 41 63 22 34 1009.4 1009.1 0.0
16/09:05am 23.2 20.3 18.9 77 2.7 SW 32 78 17 42 1008.5 1008.2 0.0
16/09:02am 24.2 23.9 18.2 69 3.8 SSW 17 56 9 30 1008.9 1008.6 0.0
16/09:00am 23.9 24.7 18.1 70 3.7 SSW 11 37 6 20 1008.0 1007.7 0.0
16/08:30am 24.1 23.0 17.4 66 4.2 S 19 26 10 14 1005.9 1005.7 0.0
16/08:00am 22.3 21.2 17.7 75 2.9 SSW 20 32 11 17 1006.0 1005.8 0.0
16/07:30am 23.0 22.3 16.5 67 4.0 S 15 22 8 12 1004.7 1004.5 0.0
16/07:00am 21.5 20.6 15.8 70 3.4 S 15 22 8 12 1004.3 1004.1 0.0
16/06:30am 21.9 20.6 16.8 73 3.1 ENE 19 22 10 12 1004.6 1004.4 0.0
16/06:00am 22.4 20.8 16.4 69 3.7 NE 20 24 11 13 1005.0 1004.8 0.0
16/05:30am 24.1 19.8 15.3 58 5.3 NE 32 46 17 25 1005.2 1005.0 0.0
16/05:00am 21.7 19.4 17.5 77 2.6 NNE 26 32 14 17 1006.3 1006.1 0.0
16/04:30am 21.3 20.5 17.9 81 2.1 ENE 19 32 10 17 1006.6 1006.4 0.0
16/04:00am 21.1 22.6 18.1 83 1.9 N 7 13 4 7 1007.5 1007.2 0.0
16/03:30am 21.1 22.0 18.5 85 1.6 WNW 11 19 6 10 1008.4 1008.1 0.0
16/03:00am 21.0 21.3 18.8 87 1.4 SE 15 20 8 11 1008.0 1007.7 0.0
16/02:30am 20.9 19.5 18.7 87 1.4 S 24 33 13 18 1007.8 1007.5 0.0
16/02:29am 21.0 19.6 18.8 87 1.4 S 24 33 13 18 1007.9 1007.6 0.0
16/02:08am 20.9 20.3 18.8 88 1.3 SW 20 32 11 17 1009.9 1009.6 0.0
16/02:00am 20.8 19.4 18.9 89 1.2 SSE 24 32 13 17 1009.1 1008.8 0.0
16/01:50am 20.7 20.6 18.8 89 1.2 SSW 17 22 9 12 1009.0 1008.7 0.0
16/01:30am 21.0 20.4 18.9 88 1.3 SSW 20 28 11 15 1009.7 1009.4 0.0
16/01:00am 20.9 19.5 18.7 87 1.4 SW 24 32 13 17 1010.3 1010.0 0.0
16/12:30am 21.0 19.9 17.8 82 2.0 SSW 20 28 11 15 1009.0 1008.7 0.0
16/12:00am 21.1 19.9 17.5 80 2.2 SE 20 26 11 14 1008.5 1008.2 0.0
 
Date/Time
CDT
Temp
°C
App
Temp
°C
Dew
Point
°C
Rel
Hum
%
Delta-T
°C
Wind Press
QNH
hPa
Press
MSL
hPa
Rain since
9am
mm
Dir  Spd
km/h
Gust
km/h
Spd
kts
Gust
kts
15/11:30pm 21.1 19.2 17.7 81 2.1 ESE 24 30 13 16 1008.6 1008.3 0.0
15/11:00pm 21.0 19.0 18.4 85 1.6 ESE 26 33 14 18 1008.8 1008.5 0.0
15/10:35pm 20.8 19.0 18.7 88 1.3 ESE 26 33 14 18 1009.0 1008.7 0.0
15/10:30pm 20.7 19.8 19.0 90 1.1 SE 22 32 12 17 1009.0 1008.7 0.0
15/10:00pm 20.6 19.0 19.3 92 0.8 SE 26 37 14 20 1008.9 1008.6 0.0
15/09:30pm 20.7 18.5 19.5 93 0.8 SE 30 43 16 23 1008.7 1008.4 0.0
15/09:00pm 20.8 18.0 19.5 92 0.8 SE 33 44 18 24 1008.4 1008.1 0.0
15/08:30pm 21.0 17.7 19.3 90 1.1 SSE 35 46 19 25 1008.3 1008.0 0.0
15/08:00pm 21.2 17.9 19.3 89 1.2 SSE 35 44 19 24 1008.9 1008.6 0.0
15/07:41pm 21.2 18.2 19.1 88 1.3 SSE 33 44 18 24 1008.8 1008.5 0.0
15/07:30pm 21.5 19.1 19.1 86 1.5 SSE 30 41 16 22 1008.7 1008.4 0.0
15/07:00pm 21.8 18.5 19.2 85 1.7 SSE 35 46 19 25 1008.9 1008.6 0.0
15/06:59pm 21.9 18.6 19.3 85 1.7 SSE 35 46 19 25 1008.9 1008.6 0.0
15/06:30pm 22.3 18.9 18.9 81 2.2 SSE 35 44 19 24 1008.6 1008.3 0.0
15/06:00pm 23.5 19.7 18.2 72 3.3 SSE 35 50 19 27 1008.1 1007.8 0.0
15/05:55pm 23.8 20.3 18.0 70 3.6 SSE 33 52 18 28 1008.1 1007.8 0.0
15/05:30pm 24.8 20.2 17.0 62 4.8 S 37 44 20 24 1008.9 1008.6 0.0
15/05:00pm 26.3 21.5 15.7 52 6.5 SSE 35 44 19 24 1008.6 1008.3 0.0
15/04:30pm 26.2 21.4 14.6 48 7.0 S 33 43 18 23 1008.8 1008.5 0.0
15/04:17pm 27.3 21.8 13.6 43 8.1 SSE 35 48 19 26 1009.0 1008.7 0.0
15/04:00pm 29.0 23.7 11.1 33 10.3 SE 30 35 16 19 1008.8 1008.5 0.0
15/03:30pm 29.7 24.4 12.6 35 10.1 SSE 32 39 17 21 1009.0 1008.7 0.0
15/03:00pm 28.6 24.2 12.9 38 9.3 SE 28 33 15 18 1009.3 1009.0 0.0
15/02:30pm 28.1 24.3 13.6 41 8.6 SE 26 32 14 17 1009.8 1009.5 0.0
15/02:00pm 28.2 23.8 12.9 38 9.0 SE 28 33 15 18 1009.6 1009.3 0.0
15/01:30pm 27.9 23.6 14.5 44 8.1 SE 30 39 16 21 1010.0 1009.7 0.0
15/01:00pm 26.7 22.3 15.1 49 7.0 SE 32 39 17 21 1010.2 1009.9 0.0
15/12:30pm 25.9 21.6 15.3 52 6.4 SE 32 39 17 21 1010.6 1010.3 0.0
15/12:00pm 25.3 21.3 16.7 59 5.3 SE 33 43 18 23 1010.3 1010.0 0.0
15/11:30am 25.4 21.8 17.1 60 5.2 SSE 32 39 17 21 1010.6 1010.3 0.0
15/11:00am 25.4 21.6 17.3 61 5.1 SSE 33 43 18 23 1010.2 1009.9 0.0
15/10:30am 24.1 20.5 17.6 67 4.1 S 33 41 18 22 1010.3 1010.0 0.0
15/10:00am 26.0 21.7 16.0 54 6.1 S 33 41 18 22 1010.3 1010.0 0.0
15/09:30am 25.9 22.2 15.9 54 6.1 SSW 30 39 16 21 1010.4 1010.1 0.0
15/09:00am 24.9 21.4 15.5 56 5.7 SW 28 41 15 22 1010.5 1010.2 0.0
15/08:30am 25.7 21.7 11.8 42 8.0 SW 24 35 13 19 1010.0 1009.7 0.0
15/08:18am 22.6 22.1 15.9 66 4.0 SSW 13 46 7 25 1009.4 1009.1 0.0
15/08:00am 21.8 21.7 15.9 69 3.6 ENE 11 15 6 8 1007.9 1007.6 0.0
15/07:30am 19.5 19.4 16.9 85 1.6 ENE 13 15 7 8 1007.5 1007.2 0.0
15/07:00am 18.9 18.2 16.5 86 1.4 E 15 17 8 9 1007.1 1006.8 0.0
15/06:30am 19.5 19.3 16.7 84 1.7 E 13 15 7 8 1007.2 1006.9 0.0
15/06:00am 20.1 19.8 17.3 84 1.7 ESE 15 19 8 10 1007.1 1006.8 0.0
15/05:30am 20.2 19.7 17.8 86 1.5 ESE 17 20 9 11 1007.0 1006.7 0.0
15/05:00am 19.3 19.5 17.6 90 1.0 SE 13 19 7 10 1007.1 1006.8 0.0
15/04:30am 19.1 18.4 16.5 85 1.6 SE 15 15 8 8 1006.7 1006.5 0.0
15/04:00am 19.9 19.9 16.3 80 2.2 S 11 15 6 8 1007.1 1006.8 0.0
15/03:30am 20.9 20.4 16.9 78 2.4 ENE 15 20 8 11 1006.7 1006.5 0.0
15/03:00am 21.2 19.9 17.2 78 2.5 E 20 26 11 14 1007.1 1006.8 0.0
15/02:30am 21.1 19.8 17.3 79 2.3 ESE 20 24 11 13 1007.7 1007.4 0.0
15/02:00am 20.9 20.3 16.7 77 2.6 SE 15 19 8 10 1008.4 1008.1 0.0
15/01:30am 21.3 21.1 16.7 75 2.8 SE 13 24 7 13 1008.7 1008.4 0.0
15/01:00am 21.9 21.4 16.8 73 3.1 SSE 15 17 8 9 1009.0 1008.7 0.0
15/12:30am 22.3 21.2 16.3 69 3.7 SE 17 19 9 10 1009.2 1008.9 0.0
15/12:00am 22.7 21.5 16.0 66 4.1 SSE 17 19 9 10 1009.4 1009.1 0.0
 
Date/Time
CDT
Temp
°C
App
Temp
°C
Dew
Point
°C
Rel
Hum
%
Delta-T
°C
Wind Press
QNH
hPa
Press
MSL
hPa
Rain since
9am
mm
Dir  Spd
km/h
Gust
km/h
Spd
kts
Gust
kts
14/11:30pm 22.7 22.0 16.3 67 3.9 SSE 15 20 8 11 1009.4 1009.1 0.0
14/11:00pm 22.8 21.8 16.6 68 3.8 S 17 20 9 11 1009.5 1009.2 0.0
14/10:30pm 23.3 22.0 16.8 67 4.0 SSE 19 22 10 12 1009.4 1009.1 0.0
14/10:00pm 23.6 22.3 16.9 66 4.1 S 19 24 10 13 1009.3 1009.0 0.0

Other Formats:

Comma delimited format used in spreadsheet applications
http://www.bom.gov.au/fwo/IDS60801/IDS60801.94651.axf

JavaScript Object Notation format (JSON) in row-major order
http://www.bom.gov.au/fwo/IDS60801/IDS60801.94651.json